createdAt,value
2022-08-20T00:02:14.224Z,13.70
2022-08-20T00:05:23.101Z,11.60
2022-08-20T00:08:27.263Z,12.30
2022-08-20T00:11:30.242Z,16.60
2022-08-20T00:14:34.220Z,14.80
2022-08-20T00:17:37.837Z,13.30
2022-08-20T00:20:44.098Z,13.00
2022-08-20T00:23:49.900Z,13.80
2022-08-20T00:26:53.123Z,32.20
2022-08-20T00:29:56.407Z,13.70
2022-08-20T00:33:04.106Z,12.10
2022-08-20T00:36:10.532Z,13.80
2022-08-20T00:39:13.658Z,14.50
2022-08-20T00:42:16.546Z,12.20
2022-08-20T00:45:21.500Z,10.60
2022-08-20T00:48:27.610Z,12.40
2022-08-20T00:51:47.953Z,13.40
2022-08-20T00:54:55.618Z,12.30
2022-08-20T00:58:03.599Z,11.50
2022-08-20T01:01:08.695Z,11.30
2022-08-20T01:04:11.482Z,12.40
2022-08-20T01:07:14.657Z,13.20
2022-08-20T01:10:23.244Z,12.90
2022-08-20T01:13:27.707Z,11.00
2022-08-20T01:16:32.117Z,12.20
2022-08-20T01:19:43.478Z,13.00
2022-08-20T01:23:15.140Z,12.30
2022-08-20T01:26:25.973Z,10.40
2022-08-20T01:29:35.919Z,10.40
2022-08-20T01:32:39.188Z,12.20
2022-08-20T01:35:43.480Z,12.10
2022-08-20T01:38:54.276Z,10.80
2022-08-20T01:42:19.804Z,10.40
2022-08-20T01:45:26.903Z,13.70
2022-08-20T01:48:30.854Z,18.90
2022-08-20T01:51:33.930Z,13.00
2022-08-20T01:54:37.567Z,12.20
2022-08-20T01:57:41.217Z,12.00
2022-08-20T02:00:44.642Z,11.90
2022-08-20T02:03:48.226Z,14.30
2022-08-20T02:06:56.617Z,14.30
2022-08-20T02:10:01.236Z,11.40
2022-08-20T02:13:06.047Z,11.70
2022-08-20T02:16:09.322Z,13.30
2022-08-20T02:19:23.475Z,16.20
2022-08-20T02:22:36.148Z,12.00
2022-08-20T02:25:43.477Z,11.20
2022-08-20T02:28:50.028Z,12.40
2022-08-20T02:32:24.284Z,14.20
2022-08-20T02:35:18.957Z,11.50
2022-08-20T02:38:22.086Z,11.50
2022-08-20T02:41:25.091Z,13.10
2022-08-20T02:44:28.060Z,13.30
2022-08-20T02:47:31.685Z,13.10
2022-08-20T02:50:34.720Z,11.20
2022-08-20T02:53:41.442Z,11.40
2022-08-20T02:56:44.558Z,12.80
2022-08-20T02:59:48.814Z,13.00
2022-08-20T03:02:51.698Z,11.80
2022-08-20T03:05:57.206Z,11.00
2022-08-20T03:09:00.920Z,11.80
2022-08-20T03:12:06.838Z,13.10
2022-08-20T03:15:17.414Z,11.80
2022-08-20T03:18:22.812Z,10.90
2022-08-20T03:21:26.843Z,11.10
2022-08-20T03:24:29.694Z,13.00
2022-08-20T03:27:36.435Z,11.80
2022-08-20T03:30:41.434Z,11.60
2022-08-20T03:33:52.601Z,11.30
2022-08-20T03:36:56.623Z,12.60
2022-08-20T03:40:00.615Z,13.50
2022-08-20T03:43:05.438Z,10.40
2022-08-20T03:46:22.251Z,10.90
2022-08-20T03:49:27.048Z,11.90
2022-08-20T03:52:30.210Z,11.80
2022-08-20T03:55:33.207Z,12.70
2022-08-20T03:58:36.634Z,11.80
2022-08-20T04:01:46.346Z,10.30
2022-08-20T04:04:57.048Z,11.20
2022-08-20T04:08:03.884Z,12.80
2022-08-20T04:11:07.904Z,14.00
2022-08-20T04:14:15.900Z,12.10
2022-08-20T04:17:23.525Z,10.50
2022-08-20T04:20:27.195Z,12.60
2022-08-20T04:23:31.438Z,12.60
2022-08-20T04:26:36.789Z,14.10
2022-08-20T04:29:43.341Z,13.00
2022-08-20T04:32:46.373Z,16.40
2022-08-20T04:35:49.340Z,13.30
2022-08-20T04:38:52.249Z,13.50
2022-08-20T04:41:55.192Z,14.00
2022-08-20T04:44:58.100Z,13.40
2022-08-20T04:48:06.588Z,12.50
2022-08-20T04:51:15.128Z,13.40
2022-08-20T04:54:18.044Z,14.50
2022-08-20T04:57:21.350Z,15.60
2022-08-20T05:00:24.352Z,14.70
2022-08-20T05:03:27.266Z,12.30
2022-08-20T05:06:32.019Z,13.80
2022-08-20T05:09:44.030Z,14.70
2022-08-20T05:12:56.675Z,16.20
2022-08-20T05:16:02.189Z,24.00
2022-08-20T05:19:07.260Z,15.50
2022-08-20T05:22:10.215Z,14.00
2022-08-20T05:25:13.532Z,15.70
2022-08-20T05:28:21.242Z,13.10
2022-08-20T05:31:24.205Z,12.70
2022-08-20T05:34:35.803Z,12.70
2022-08-20T05:37:41.452Z,12.90
2022-08-20T05:40:45.611Z,13.10
2022-08-20T05:43:48.517Z,13.60
2022-08-20T05:46:54.567Z,13.10
2022-08-20T05:49:57.583Z,10.60
2022-08-20T05:53:01.764Z,12.20
2022-08-20T05:56:05.098Z,13.80
2022-08-20T05:59:09.187Z,13.70
2022-08-20T06:02:31.607Z,14.90
2022-08-20T06:05:35.118Z,12.80
2022-08-20T06:08:38.197Z,16.00
2022-08-20T06:11:40.945Z,16.10
2022-08-20T06:14:44.627Z,14.10
2022-08-20T06:17:58.051Z,13.30
2022-08-20T06:21:01.651Z,12.60
2022-08-20T06:24:05.003Z,13.80
2022-08-20T06:27:08.235Z,15.80
2022-08-20T06:30:15.357Z,15.00
2022-08-20T06:33:18.605Z,14.40
2022-08-20T06:36:22.189Z,17.10
2022-08-20T06:39:27.664Z,19.90
2022-08-20T06:42:30.583Z,22.20
2022-08-20T06:45:33.453Z,15.70
2022-08-20T06:48:36.965Z,15.60
2022-08-20T06:51:41.421Z,13.00
2022-08-20T06:54:46.074Z,17.20
2022-08-20T06:58:07.588Z,17.50
2022-08-20T07:01:30.521Z,12.60
2022-08-20T07:04:33.987Z,11.40
2022-08-20T07:07:37.934Z,12.30
2022-08-20T07:10:43.173Z,14.90
2022-08-20T07:13:46.342Z,17.90
2022-08-20T07:16:49.833Z,14.80
2022-08-20T07:19:52.776Z,14.10
2022-08-20T07:22:56.358Z,12.80
2022-08-20T07:26:00.637Z,14.40
2022-08-20T07:29:04.390Z,15.90
2022-08-20T07:32:26.207Z,12.00
2022-08-20T07:35:32.356Z,10.80
2022-08-20T07:38:36.608Z,10.60
2022-08-20T07:41:39.553Z,12.40
2022-08-20T07:44:42.448Z,10.50
2022-08-20T07:47:46.568Z,8.80
2022-08-20T07:50:50.226Z,7.40
2022-08-20T07:53:53.440Z,8.10
2022-08-20T07:56:56.416Z,9.00
2022-08-20T08:00:00.407Z,9.90
2022-08-20T08:03:06.663Z,10.00
2022-08-20T08:06:09.938Z,15.00
2022-08-20T08:09:17.733Z,12.70
2022-08-20T08:12:21.661Z,11.70
2022-08-20T08:15:29.691Z,11.50
2022-08-20T08:18:39.898Z,12.90
2022-08-20T08:21:44.525Z,11.90
2022-08-20T08:24:57.663Z,14.60
2022-08-20T08:28:01.238Z,12.60
2022-08-20T08:31:04.185Z,16.00
2022-08-20T08:34:07.290Z,17.20
2022-08-20T08:37:10.259Z,15.20
2022-08-20T08:40:15.771Z,12.60
2022-08-20T08:43:21.524Z,13.70
2022-08-20T08:46:27.557Z,16.30
2022-08-20T08:49:38.188Z,15.70
2022-08-20T08:52:42.286Z,14.50
2022-08-20T08:55:45.387Z,15.70
2022-08-20T08:58:48.770Z,13.60
2022-08-20T09:01:57.208Z,15.40
2022-08-20T09:05:17.940Z,18.20
2022-08-20T09:08:27.857Z,16.90
2022-08-20T09:11:31.840Z,15.80
2022-08-20T09:14:35.298Z,16.40
2022-08-20T09:17:39.817Z,16.90
2022-08-20T09:20:42.956Z,17.00
2022-08-20T09:23:46.379Z,19.60
2022-08-20T09:26:49.327Z,20.10
2022-08-20T09:29:53.759Z,18.40
2022-08-20T09:32:59.898Z,17.90
2022-08-20T09:36:02.975Z,15.80
2022-08-20T09:39:05.785Z,16.60
2022-08-20T09:42:08.804Z,16.60
2022-08-20T09:45:13.261Z,17.90
2022-08-20T09:48:16.340Z,19.50
2022-08-20T09:51:19.613Z,17.90
2022-08-20T09:54:23.203Z,15.70
2022-08-20T09:57:27.382Z,14.80
2022-08-20T10:00:30.679Z,17.00
2022-08-20T10:03:33.603Z,21.10
2022-08-20T10:06:45.632Z,15.00
2022-08-20T10:09:48.557Z,13.90
2022-08-20T10:12:54.792Z,15.10
2022-08-20T10:15:58.129Z,18.30
2022-08-20T10:19:01.164Z,19.00
2022-08-20T10:22:04.388Z,14.70
2022-08-20T10:25:08.343Z,14.90
2022-08-20T10:28:11.728Z,16.80
2022-08-20T10:31:14.843Z,19.40
2022-08-20T10:34:18.117Z,16.00
2022-08-20T10:37:23.824Z,16.30
2022-08-20T10:40:28.001Z,17.00
2022-08-20T10:43:31.632Z,18.50
2022-08-20T10:46:34.723Z,17.50
2022-08-20T10:49:37.878Z,16.50
2022-08-20T10:52:40.808Z,15.70
2022-08-20T10:55:44.265Z,14.60
2022-08-20T10:58:47.318Z,17.10
2022-08-20T11:01:50.325Z,20.90
2022-08-20T11:04:54.487Z,15.40
2022-08-20T11:07:58.177Z,13.70
2022-08-20T11:11:01.150Z,16.80
2022-08-20T11:14:04.125Z,16.70
2022-08-20T11:17:07.709Z,17.10
2022-08-20T11:20:12.594Z,21.50
2022-08-20T11:23:15.799Z,14.80
2022-08-20T11:26:24.196Z,16.40
2022-08-20T11:29:29.962Z,15.80
2022-08-20T11:32:35.789Z,15.40
2022-08-20T11:35:43.463Z,12.80
2022-08-20T11:39:42.738Z,14.10
2022-08-20T11:43:13.123Z,13.30
2022-08-20T11:46:17.898Z,15.50
2022-08-20T11:50:23.018Z,16.80
2022-08-20T11:53:47.166Z,13.70
2022-08-20T11:57:06.431Z,13.80
2022-08-20T12:00:31.946Z,13.40
2022-08-20T12:03:40.307Z,14.20
2022-08-20T12:06:47.487Z,12.80
2022-08-20T12:09:59.672Z,11.10
2022-08-20T12:13:15.251Z,10.60
2022-08-20T12:16:32.507Z,11.80
2022-08-20T12:20:12.521Z,11.70
2022-08-20T12:23:36.613Z,11.30
2022-08-20T12:26:48.467Z,10.10
2022-08-20T12:30:08.058Z,11.00
2022-08-20T12:33:14.868Z,11.30
2022-08-20T12:36:22.531Z,9.40
2022-08-20T12:39:35.811Z,9.00
2022-08-20T12:42:50.377Z,8.40
2022-08-20T12:46:07.893Z,9.00
2022-08-20T12:49:10.965Z,8.50
2022-08-20T12:52:16.284Z,8.90
2022-08-20T12:55:20.259Z,6.30
2022-08-20T12:58:23.416Z,6.00
2022-08-20T13:01:26.413Z,5.90
2022-08-20T13:04:29.419Z,6.60
2022-08-20T13:07:33.682Z,5.80
2022-08-20T13:10:46.009Z,4.80
2022-08-20T13:13:49.184Z,4.20
2022-08-20T13:16:57.499Z,3.80
2022-08-20T13:20:06.541Z,4.30
2022-08-20T13:23:09.609Z,4.20
2022-08-20T13:26:12.570Z,3.70
2022-08-20T13:29:16.974Z,4.50
2022-08-20T13:32:21.172Z,4.70
2022-08-20T13:35:24.860Z,4.10
2022-08-20T13:38:28.553Z,4.60
2022-08-20T13:41:31.625Z,3.40
2022-08-20T13:44:34.807Z,3.40
2022-08-20T13:47:41.423Z,3.10
2022-08-20T13:50:47.131Z,3.40
2022-08-20T13:53:50.987Z,3.60
2022-08-20T13:56:54.066Z,2.90
2022-08-20T13:59:59.330Z,3.00
2022-08-20T14:03:04.520Z,2.80
2022-08-20T14:06:11.079Z,3.10
2022-08-20T14:09:21.030Z,3.90
2022-08-20T14:12:25.790Z,2.50
2022-08-20T14:15:31.673Z,2.10
2022-08-20T14:18:35.600Z,2.40
2022-08-20T14:21:39.704Z,2.40
2022-08-20T14:24:46.146Z,2.00
2022-08-20T14:27:51.165Z,2.10
2022-08-20T14:30:56.003Z,1.50
2022-08-20T14:33:59.670Z,1.40
2022-08-20T14:37:23.428Z,1.40
2022-08-20T14:40:27.771Z,4.40
2022-08-20T14:43:31.788Z,1.20
2022-08-20T14:46:35.650Z,1.00
2022-08-20T14:49:39.400Z,0.90
2022-08-20T14:52:42.898Z,1.40
2022-08-20T14:55:45.863Z,2.20
2022-08-20T14:58:49.134Z,1.30
2022-08-20T15:01:52.312Z,1.00
2022-08-20T15:04:57.836Z,1.00
2022-08-20T15:08:01.328Z,1.00
2022-08-20T15:11:04.506Z,1.00
2022-08-20T15:14:08.703Z,1.00
2022-08-20T15:17:18.184Z,1.20
2022-08-20T15:20:24.783Z,1.10
2022-08-20T15:23:27.654Z,2.30
2022-08-20T15:26:30.828Z,0.70
2022-08-20T15:29:34.362Z,0.70
2022-08-20T15:32:37.691Z,0.80
2022-08-20T15:35:40.951Z,0.80
2022-08-20T15:38:44.044Z,0.90
2022-08-20T15:41:47.119Z,0.90
2022-08-20T15:45:21.769Z,0.90
2022-08-20T15:48:40.241Z,1.40
2022-08-20T15:51:48.901Z,1.20
2022-08-20T15:54:55.122Z,1.00
2022-08-20T15:58:10.650Z,1.10
2022-08-20T16:01:55.018Z,1.10
2022-08-20T16:05:35.678Z,1.10
2022-08-20T16:09:18.274Z,3.10
2022-08-20T16:12:35.264Z,1.50
2022-08-20T16:15:45.188Z,1.20
2022-08-20T16:18:54.156Z,1.10
2022-08-20T16:21:58.611Z,1.40
2022-08-20T16:25:02.598Z,1.30
2022-08-20T16:28:13.090Z,1.00
2022-08-20T16:31:21.029Z,1.00
2022-08-20T16:34:34.345Z,1.50
2022-08-20T16:37:56.344Z,1.40
2022-08-20T16:41:07.175Z,1.80
2022-08-20T16:44:25.022Z,1.80
2022-08-20T16:47:36.077Z,2.00
2022-08-20T16:50:45.999Z,2.40
2022-08-20T16:53:49.283Z,2.10
2022-08-20T16:57:02.952Z,2.60
2022-08-20T17:00:35.440Z,3.10
2022-08-20T17:03:40.914Z,3.30
2022-08-20T17:06:47.900Z,2.70
2022-08-20T17:09:51.482Z,3.00
2022-08-20T17:12:59.634Z,3.50
2022-08-20T17:19:30.734Z,2.90
2022-08-20T17:22:43.870Z,3.50
2022-08-20T17:25:59.397Z,4.30
2022-08-20T17:29:16.087Z,4.20
2022-08-20T17:32:27.392Z,3.40
2022-08-20T17:35:40.656Z,3.60
2022-08-20T17:38:52.020Z,3.70
2022-08-20T17:42:05.331Z,4.10
2022-08-20T17:45:44.678Z,3.90
2022-08-20T17:48:51.909Z,4.00
2022-08-20T17:51:57.327Z,3.90
2022-08-20T17:55:03.465Z,3.80
2022-08-20T17:58:15.822Z,5.70
2022-08-20T18:01:21.623Z,4.90
2022-08-20T18:04:24.794Z,4.40
2022-08-20T18:07:37.591Z,4.30
2022-08-20T18:11:06.558Z,4.90
2022-08-20T18:14:19.829Z,6.20
2022-08-20T18:17:48.939Z,4.80
2022-08-20T18:21:29.775Z,5.40
2022-08-20T18:25:03.955Z,4.50
2022-08-20T18:28:24.984Z,4.90
2022-08-20T18:31:44.900Z,5.10
2022-08-20T18:34:48.943Z,4.50
2022-08-20T18:37:53.000Z,4.80
2022-08-20T18:41:08.072Z,4.40
2022-08-20T18:44:29.240Z,4.70
2022-08-20T18:47:35.395Z,5.50
2022-08-20T18:50:41.003Z,4.90
2022-08-20T18:53:52.048Z,5.10
2022-08-20T18:57:19.147Z,4.70
2022-08-20T19:00:28.699Z,5.00
2022-08-20T19:03:35.829Z,4.50
2022-08-20T19:06:46.765Z,5.40
2022-08-20T19:10:28.470Z,4.90
2022-08-20T19:14:23.342Z,4.70
2022-08-20T19:18:04.285Z,4.80
2022-08-20T19:21:16.031Z,4.50
2022-08-20T19:24:29.924Z,4.40
2022-08-20T19:32:25.236Z,5.20
2022-08-20T19:35:29.329Z,4.50
2022-08-20T19:38:32.392Z,5.00
2022-08-20T19:41:46.314Z,4.90
2022-08-20T19:44:53.564Z,5.00
2022-08-20T19:48:27.980Z,4.80
2022-08-20T19:51:53.361Z,4.70
2022-08-20T19:55:03.353Z,4.20
2022-08-20T19:58:18.859Z,4.10
2022-08-20T20:01:30.039Z,4.70
2022-08-20T20:05:05.466Z,4.20
2022-08-20T20:08:11.775Z,3.80
2022-08-20T20:11:21.904Z,3.40
2022-08-20T20:18:02.543Z,3.80
2022-08-20T20:21:43.330Z,3.50
2022-08-20T20:25:22.890Z,3.60
2022-08-20T20:28:32.074Z,3.10
2022-08-20T20:31:45.415Z,3.30
2022-08-20T20:34:59.911Z,3.10
2022-08-20T20:38:08.456Z,3.20
2022-08-20T20:41:23.604Z,2.80
2022-08-20T20:44:37.099Z,2.50
2022-08-20T20:47:49.938Z,2.80
2022-08-20T20:50:56.442Z,2.80
2022-08-20T20:54:04.194Z,3.20
2022-08-20T20:57:09.488Z,3.20
2022-08-20T21:00:17.880Z,2.50
2022-08-20T21:06:28.315Z,2.40
2022-08-20T21:09:31.959Z,2.70
2022-08-20T21:12:35.180Z,3.00
2022-08-20T21:15:40.051Z,5.00
2022-08-20T21:18:45.071Z,2.20
2022-08-20T21:21:48.705Z,2.60
2022-08-20T21:24:52.595Z,2.10
2022-08-20T21:27:57.083Z,2.40
2022-08-20T21:31:05.494Z,3.30
2022-08-20T21:34:08.579Z,1.80
2022-08-20T21:37:18.792Z,3.60
2022-08-20T21:40:23.380Z,2.40
2022-08-20T21:43:32.990Z,1.90
2022-08-20T21:46:36.547Z,1.40
2022-08-20T21:49:39.929Z,1.70
2022-08-20T21:52:55.048Z,2.10
2022-08-20T21:56:07.423Z,1.60
2022-08-20T21:59:11.567Z,1.60
2022-08-20T22:02:16.482Z,3.40
2022-08-20T22:05:20.100Z,1.40
2022-08-20T22:08:28.553Z,2.00
2022-08-20T22:11:34.176Z,1.50
2022-08-20T22:14:38.194Z,3.70
2022-08-20T22:17:41.171Z,2.10
2022-08-20T22:20:44.551Z,3.60
2022-08-20T22:23:48.439Z,2.50
2022-08-20T22:26:51.333Z,1.80
2022-08-20T22:29:54.511Z,1.90
2022-08-20T22:33:03.397Z,1.90
2022-08-20T22:36:07.355Z,2.70
2022-08-20T22:39:11.181Z,2.90
2022-08-20T22:42:14.156Z,2.20
2022-08-20T22:45:17.507Z,2.70
2022-08-20T22:48:21.055Z,2.30
2022-08-20T22:51:29.048Z,2.70
2022-08-20T22:54:34.604Z,5.10
2022-08-20T22:57:38.482Z,3.40
2022-08-20T23:00:44.744Z,2.50
2022-08-20T23:03:47.730Z,2.60
2022-08-20T23:06:51.710Z,3.40
2022-08-20T23:09:55.700Z,3.20
2022-08-20T23:12:59.218Z,3.60
2022-08-20T23:16:03.240Z,3.50
2022-08-20T23:19:06.773Z,4.10
2022-08-20T23:22:10.052Z,4.80
2022-08-20T23:25:15.793Z,5.60
2022-08-20T23:28:21.347Z,4.20
2022-08-20T23:31:24.409Z,3.80
2022-08-20T23:34:27.765Z,4.20
2022-08-20T23:37:34.831Z,5.10
2022-08-20T23:40:38.353Z,4.80
2022-08-20T23:43:41.527Z,4.70
2022-08-20T23:46:44.722Z,4.50
2022-08-20T23:49:48.075Z,4.40
2022-08-20T23:52:52.075Z,5.80
2022-08-20T23:55:55.064Z,6.80
2022-08-20T23:58:59.410Z,5.70
